Time;durP1;ratioP1;P1;durP2;ratioP2;P2;SDS_P1;SDS_P2;PMS_P1;PMS_P2;Temp;Humidity;BMP_temperature;BMP_pressure;BME280_temperature;BME280_humidity;BME280_pressure;Samples;Min_cycle;Max_cycle;Signal;HPM_P1;HPM_P2
2021/01/13 00:00:23;;;;;;;24.42;15.80;;;;;;;6.43;85.80;101300.78;4995907;28;20082;-61
2021/01/13 00:02:50;;;;;;;25.08;13.70;;;;;;;6.42;85.91;101293.63;4992362;28;20050;-63
2021/01/13 00:05:16;;;;;;;22.88;14.38;;;;;;;6.41;85.93;101303.00;4992903;28;20046;-63
2021/01/13 00:07:44;;;;;;;35.58;18.08;;;;;;;6.40;86.13;101295.88;4991877;28;20047;-61
2021/01/13 00:10:11;;;;;;;29.75;15.88;;;;;;;6.40;86.19;101295.88;4983040;28;20073;-60
2021/01/13 00:12:39;;;;;;;25.10;14.65;;;;;;;6.41;85.92;101291.19;5012358;28;20049;-61
2021/01/13 00:15:07;;;;;;;23.70;13.60;;;;;;;6.42;86.17;101288.13;5011922;28;20053;-63
2021/01/13 00:17:34;;;;;;;26.40;14.48;;;;;;;6.43;85.79;101278.78;4996872;28;20110;-63
2021/01/13 00:20:00;;;;;;;19.73;12.85;;;;;;;6.44;86.24;101279.56;4992847;28;20086;-63
2021/01/13 00:22:26;;;;;;;23.95;13.35;;;;;;;6.44;86.59;101280.41;4992098;28;20070;-63
2021/01/13 00:24:52;;;;;;;25.40;14.18;;;;;;;6.45;86.43;101276.53;4992708;28;20105;-63
2021/01/13 00:27:22;;;;;;;24.88;14.43;;;;;;;6.46;86.16;101269.91;4991929;28;20779;-63
2021/01/13 00:29:52;;;;;;;23.92;15.80;;;;;;;6.48;86.39;101275.09;4974558;28;20416;-63
2021/01/13 00:32:18;;;;;;;26.95;15.38;;;;;;;6.48;86.49;101267.69;4991824;28;20077;-62
2021/01/13 00:34:46;;;;;;;22.95;14.48;;;;;;;6.50;86.60;101279.19;4992098;28;20042;-63
2021/01/13 00:37:12;;;;;;;25.70;15.50;;;;;;;6.49;86.27;101272.03;4991601;28;20053;-61
2021/01/13 00:39:38;;;;;;;25.55;16.13;;;;;;;6.50;86.52;101273.69;4991081;28;20117;-57
2021/01/13 00:42:05;;;;;;;33.17;19.92;;;;;;;6.52;86.65;101274.19;4991937;28;20121;-60
2021/01/13 00:44:32;;;;;;;28.65;16.75;;;;;;;6.53;86.60;101262.06;4990225;28;20050;-63
2021/01/13 00:46:58;;;;;;;26.77;17.52;;;;;;;6.53;86.49;101259.31;4974761;28;20524;-63
2021/01/13 00:49:24;;;;;;;24.90;16.98;;;;;;;6.54;86.56;101257.38;4974185;28;20042;-62
2021/01/13 00:51:51;;;;;;;35.78;19.48;;;;;;;6.55;86.54;101248.81;4991586;28;20141;-60
2021/01/13 00:54:17;;;;;;;18.77;13.75;;;;;;;6.56;86.61;101250.47;4991824;28;20106;-62
2021/01/13 00:56:47;;;;;;;35.40;18.70;;;;;;;6.57;86.66;101226.50;4973926;28;20047;-61
2021/01/13 00:59:14;;;;;;;30.90;19.67;;;;;;;6.57;86.74;101235.56;4981093;28;20083;-61
2021/01/13 01:01:42;;;;;;;33.28;20.25;;;;;;;6.59;86.69;101221.53;4957564;28;20405;-62
2021/01/13 01:04:12;;;;;;;29.25;19.55;;;;;;;6.60;86.69;101234.97;4971196;28;20053;-63
2021/01/13 01:06:39;;;;;;;51.10;26.23;;;;;;;6.61;86.83;101228.34;4971472;28;20043;-61
2021/01/13 01:09:07;;;;;;;37.53;22.05;;;;;;;6.60;86.77;101215.69;4974082;28;20046;-62
2021/01/13 01:11:35;;;;;;;34.88;20.52;;;;;;;6.61;86.78;101214.59;4959458;28;20042;-60
2021/01/13 01:14:09;;;;;;;37.53;21.15;;;;;;;6.59;86.80;101205.81;4972504;28;20412;-63
2021/01/13 01:16:37;;;;;;;35.53;22.30;;;;;;;6.59;87.25;101205.81;4971454;28;20070;-61
2021/01/13 01:19:09;;;;;;;34.33;20.97;;;;;;;6.59;86.92;101203.06;4955175;28;20097;-62
2021/01/13 01:21:44;;;;;;;37.85;22.52;;;;;;;6.60;87.18;101204.69;4973618;28;20118;-62
2021/01/13 01:24:10;;;;;;;39.28;22.63;;;;;;;6.61;87.04;101192.59;4971565;28;20043;-61
2021/01/13 01:26:47;;;;;;;34.42;20.23;;;;;;;6.64;87.10;101199.41;4959530;28;20578;-61
2021/01/13 01:29:16;;;;;;;34.55;21.30;;;;;;;6.66;87.05;101203.47;4975987;28;20073;-63
2021/01/13 01:31:50;;;;;;;39.55;25.10;;;;;;;6.65;87.33;101193.56;4976108;28;20073;-63
2021/01/13 01:34:17;;;;;;;42.63;24.08;;;;;;;6.64;87.54;101202.16;4989026;28;20685;-61
2021/01/13 01:36:43;;;;;;;42.67;22.63;;;;;;;6.62;87.41;101196.13;4984853;28;20106;-64
2021/01/13 01:39:10;;;;;;;42.05;23.42;;;;;;;6.60;87.38;101193.69;4975695;28;20497;-63
2021/01/13 01:41:36;;;;;;;40.03;22.80;;;;;;;6.60;87.41;101188.19;4976082;28;20146;-63
2021/01/13 01:44:02;;;;;;;41.75;22.45;;;;;;;6.61;87.81;101189.00;4975304;28;20097;-63
2021/01/13 01:46:30;;;;;;;46.95;24.15;;;;;;;6.61;87.50;101180.75;4975060;28;20114;-63
2021/01/13 01:48:59;;;;;;;31.90;21.13;;;;;;;6.58;87.83;101173.94;4975051;28;20425;-61
2021/01/13 01:52:18;;;;;;;44.90;23.38;;;;;;;6.59;87.86;101167.28;4975884;28;20043;-61
2021/01/13 01:54:54;;;;;;;35.75;21.35;;;;;;;6.59;87.97;101172.00;4960548;28;20063;-63
2021/01/13 01:57:23;;;;;;;33.45;20.38;;;;;;;6.61;87.71;101170.56;4975215;28;20047;-63
2021/01/13 02:00:02;;;;;;;41.83;21.77;;;;;;;6.60;88.04;101174.44;4991596;28;20746;-60
2021/01/13 02:02:39;;;;;;;33.92;20.73;;;;;;;6.61;87.97;101162.31;5000933;28;20050;-60
2021/01/13 02:05:07;;;;;;;38.38;22.77;;;;;;;6.64;88.11;101164.47;4994204;28;20038;-61
2021/01/13 02:07:34;;;;;;;44.28;21.75;;;;;;;6.66;87.71;101166.88;4994231;28;20046;-61
2021/01/13 02:10:03;;;;;;;38.42;22.77;;;;;;;6.66;88.09;101166.88;5001920;28;20042;-61
2021/01/13 02:12:33;;;;;;;37.95;21.15;;;;;;;6.68;88.17;101159.13;4978523;28;20035;-60
2021/01/13 02:15:03;;;;;;;37.83;21.88;;;;;;;6.69;88.30;101161.59;4994778;28;20089;-61
2021/01/13 02:17:37;;;;;;;38.90;22.73;;;;;;;6.71;88.02;101158.53;4993837;28;20049;-62
2021/01/13 02:20:08;;;;;;;47.97;24.80;;;;;;;6.73;88.30;101157.09;4995182;28;20129;-61
2021/01/13 02:22:57;;;;;;;38.35;22.55;;;;;;;6.77;88.33;101161.97;4994015;28;20053;-61
2021/01/13 02:26:11;;;;;;;58.13;27.58;;;;;;;6.78;88.34;101153.41;4994166;28;20046;-63
2021/01/13 02:28:51;;;;;;;51.83;24.48;;;;;;;6.81;88.44;101160.22;4992845;28;20053;-63
2021/01/13 02:31:33;;;;;;;48.83;25.88;;;;;;;6.83;88.56;101155.25;4976918;28;20041;-60
2021/01/13 02:34:19;;;;;;;42.03;21.97;;;;;;;6.85;88.72;101153.81;4992053;28;20058;-59
2021/01/13 02:37:04;;;;;;;47.60;26.52;;;;;;;6.87;88.69;101145.22;4993984;28;20137;-63
2021/01/13 02:39:35;;;;;;;51.47;24.10;;;;;;;6.89;88.69;101149.28;4976787;28;20416;-62
2021/01/13 02:42:01;;;;;;;42.65;22.20;;;;;;;6.91;88.76;101151.75;4993052;28;20081;-61
2021/01/13 02:44:29;;;;;;;55.00;25.27;;;;;;;6.93;88.83;101149.50;4994371;28;20113;-62
2021/01/13 02:46:55;;;;;;;48.30;23.13;;;;;;;6.95;88.87;101147.25;4994574;28;20054;-62
2021/01/13 02:49:29;;;;;;;55.42;24.88;;;;;;;6.96;89.15;101143.38;4976624;28;20057;-60
2021/01/13 02:51:58;;;;;;;45.42;21.70;;;;;;;6.98;89.03;101141.13;4993487;28;20050;-62
2021/01/13 02:54:27;;;;;;;55.65;25.00;;;;;;;6.98;89.02;101147.44;4993743;28;20085;-60
2021/01/13 02:57:15;;;;;;;39.13;21.45;;;;;;;7.00;89.18;101141.59;4994125;28;20132;-63
2021/01/13 02:59:46;;;;;;;44.60;21.05;;;;;;;7.03;89.22;101141.81;4995959;28;20054;-64
2021/01/13 03:02:12;;;;;;;29.77;15.52;;;;;;;7.04;89.30;101140.66;5002148;28;20519;-61
2021/01/13 03:04:39;;;;;;;28.95;15.80;;;;;;;7.06;89.32;101140.38;4994133;28;20407;-63
2021/01/13 03:07:13;;;;;;;33.03;17.92;;;;;;;7.08;89.61;101140.88;4993769;28;20456;-62
2021/01/13 03:09:45;;;;;;;28.40;14.98;;;;;;;7.12;89.63;101144.63;4980392;28;20038;-63
2021/01/13 03:12:23;;;;;;;21.75;11.52;;;;;;;7.15;89.70;101130.22;4992827;28;20129;-64
2021/01/13 03:14:55;;;;;;;18.80;11.52;;;;;;;7.20;89.67;101125.41;4994232;28;20050;-63
2021/01/13 03:17:33;;;;;;;19.38;10.98;;;;;;;7.23;89.88;101121.22;4993634;28;20073;-61
2021/01/13 03:20:26;;;;;;;19.17;11.00;;;;;;;7.28;89.97;101118.34;4993736;28;20042;-63
2021/01/13 03:23:09;;;;;;;10.68;7.15;;;;;;;7.34;90.28;101122.59;4990767;28;20062;-61
2021/01/13 03:25:44;;;;;;;11.18;6.40;;;;;;;7.42;89.94;101116.31;4993404;28;20069;-61
2021/01/13 03:28:14;;;;;;;11.68;5.82;;;;;;;7.47;90.10;101113.44;4993852;28;20496;-65
2021/01/13 03:30:47;;;;;;;6.57;4.45;;;;;;;7.52;90.63;101107.00;4993395;28;20061;-63
2021/01/13 03:33:23;;;;;;;8.45;4.45;;;;;;;7.57;90.62;101112.38;4972493;28;20048;-61
2021/01/13 03:35:57;;;;;;;2.47;2.25;;;;;;;7.64;91.05;101116.28;4974943;28;20053;-63
2021/01/13 03:38:27;;;;;;;2.80;1.48;;;;;;;7.72;90.91;101110.00;4976135;28;20101;-61
2021/01/13 03:41:03;;;;;;;2.38;0.90;;;;;;;7.78;90.95;101105.97;4975326;28;20097;-61
2021/01/13 03:43:38;;;;;;;1.15;1.00;;;;;;;7.85;91.05;101111.03;4991178;28;20038;-62
2021/01/13 03:46:09;;;;;;;3.53;0.95;;;;;;;7.90;91.27;101099.84;4993542;28;20050;-63
2021/01/13 03:48:45;;;;;;;1.70;0.98;;;;;;;7.93;91.10;101094.53;4993262;28;20046;-61
2021/01/13 03:51:39;;;;;;;2.38;1.08;;;;;;;7.98;91.50;101099.06;4974387;28;20077;-61
2021/01/13 03:54:08;;;;;;;2.53;0.88;;;;;;;8.04;91.41;101103.31;4986363;28;20134;-61
2021/01/13 03:56:48;;;;;;;1.27;0.98;;;;;;;8.09;91.59;101099.59;4993437;28;20105;-63
2021/01/13 03:59:25;;;;;;;1.88;1.30;;;;;;;8.13;91.93;101086.81;4992025;28;20090;-60
2021/01/13 04:01:57;;;;;;;2.28;0.98;;;;;;;8.17;91.94;101090.53;5001306;28;20078;-63
2021/01/13 04:04:49;;;;;;;1.42;0.80;;;;;;;8.20;92.27;101085.19;4991849;28;20053;-61
2021/01/13 04:07:16;;;;;;;2.35;0.88;;;;;;;8.24;91.87;101086.16;4985642;28;20500;-60
2021/01/13 04:09:44;;;;;;;1.23;0.70;;;;;;;8.25;91.62;101090.56;4992036;28;20076;-61
2021/01/13 04:12:16;;;;;;;0.82;0.70;;;;;;;8.28;91.86;101080.88;4992398;28;20458;-61
2021/01/13 04:14:57;;;;;;;1.45;0.85;;;;;;;8.29;92.06;101076.97;4992258;28;20038;-62
2021/01/13 04:17:26;;;;;;;0.60;0.60;;;;;;;8.32;91.79;101070.81;4992128;28;20046;-63
2021/01/13 04:19:54;;;;;;;0.70;0.70;;;;;;;8.34;91.84;101074.84;4991612;28;20046;-60
2021/01/13 04:22:25;;;;;;;1.30;0.80;;;;;;;8.38;91.79;101075.03;4991550;28;20082;-60
2021/01/13 04:24:55;;;;;;;0.50;0.50;;;;;;;8.41;91.86;101074.41;4992422;28;20433;-60
2021/01/13 04:27:22;;;;;;;0.80;0.63;;;;;;;8.42;91.81;101071.31;4992185;28;20050;-62
2021/01/13 04:29:49;;;;;;;0.95;0.50;;;;;;;8.45;91.96;101058.81;4974514;28;20057;-60
2021/01/13 04:32:16;;;;;;;5.50;0.80;;;;;;;8.47;92.00;101062.88;4991575;28;20563;-53
2021/01/13 04:34:43;;;;;;;1.85;0.60;;;;;;;8.49;91.92;101065.31;4992770;28;20057;-53
2021/01/13 04:37:10;;;;;;;1.75;0.52;;;;;;;8.50;92.03;101064.16;4982031;28;20049;-53
2021/01/13 04:39:38;;;;;;;1.05;0.60;;;;;;;8.52;92.10;101064.69;4992272;28;20129;-53
2021/01/13 04:42:26;;;;;;;2.50;1.00;;;;;;;8.53;92.29;101060.75;4990212;28;20670;-56
2021/01/13 04:45:07;;;;;;;1.67;0.50;;;;;;;8.54;92.18;101062.41;4992138;28;20042;-56
2021/01/13 04:48:02;;;;;;;2.85;0.98;;;;;;;8.56;92.14;101049.06;4998409;28;20046;-55
2021/01/13 04:50:34;;;;;;;2.03;0.95;;;;;;;8.57;92.17;101056.22;4981951;28;20468;-53
2021/01/13 04:53:08;;;;;;;3.47;1.42;;;;;;;8.57;92.05;101050.72;4990674;28;20057;-54
2021/01/13 04:55:47;;;;;;;1.77;1.00;;;;;;;8.57;92.29;101050.72;4974200;28;20121;-51
2021/01/13 04:58:51;;;;;;;2.05;0.65;;;;;;;8.59;92.59;101048.44;4991420;28;20117;-52
2021/01/13 05:01:56;;;;;;;2.10;0.70;;;;;;;8.60;92.85;101052.84;4992759;28;20046;-54
2021/01/13 05:04:47;;;;;;;1.98;0.85;;;;;;;8.61;92.57;101048.91;4973287;28;20076;-54
2021/01/13 05:07:35;;;;;;;0.52;0.52;;;;;;;8.62;92.44;101045.03;4991052;28;20073;-54
2021/01/13 05:10:01;;;;;;;0.75;0.40;;;;;;;8.63;92.37;101048.59;4996730;28;20073;-55
2021/01/13 05:12:46;;;;;;;0.40;0.40;;;;;;;8.65;92.77;101052.66;4999357;28;20070;-52
2021/01/13 05:15:25;;;;;;;1.17;0.65;;;;;;;8.65;92.39;101049.91;4974097;28;20129;-52
2021/01/13 05:18:14;;;;;;;1.60;0.70;;;;;;;8.69;92.68;101063.84;4991210;28;20046;-53
2021/01/13 05:20:43;;;;;;;2.15;0.70;;;;;;;8.68;92.38;101052.03;4991816;28;20415;-51
2021/01/13 05:23:11;;;;;;;2.67;1.27;;;;;;;8.69;92.35;101050.03;4991038;28;20121;-52
2021/01/13 05:25:45;;;;;;;0.60;0.60;;;;;;;8.70;92.54;101054.44;4986637;28;20046;-52
2021/01/13 05:28:15;;;;;;;0.77;0.50;;;;;;;8.72;92.57;101058.50;4991940;28;20042;-55
2021/01/13 05:31:08;;;;;;;0.80;0.80;;;;;;;8.73;92.68;101062.91;4991387;28;20042;-59
2021/01/13 05:33:34;;;;;;;1.85;0.90;;;;;;;8.73;92.74;101060.13;4987772;28;20062;-50
2021/01/13 05:36:05;;;;;;;0.55;0.55;;;;;;;8.73;92.53;101062.06;4990198;28;20046;-56
2021/01/13 05:38:31;;;;;;;1.25;0.70;;;;;;;8.73;92.51;101051.84;4991801;28;20047;-56
2021/01/13 05:40:57;;;;;;;0.63;0.60;;;;;;;8.75;92.67;101046.81;4973662;28;20077;-54
2021/01/13 05:43:24;;;;;;;1.20;0.90;;;;;;;8.75;92.45;101052.34;4955388;28;20054;-56
2021/01/13 05:45:51;;;;;;;0.93;0.75;;;;;;;8.76;92.61;101053.97;4990238;28;20062;-57
2021/01/13 05:48:25;;;;;;;1.00;0.73;;;;;;;8.77;92.79;101050.06;4990696;28;20049;-57
2021/01/13 05:50:53;;;;;;;2.67;1.02;;;;;;;8.77;92.56;101047.28;4990584;28;20046;-59
2021/01/13 05:53:23;;;;;;;1.13;0.90;;;;;;;8.77;92.68;101052.00;4990970;28;20088;-61
2021/01/13 05:55:51;;;;;;;1.35;1.15;;;;;;;8.79;92.79;101046.97;4972432;28;20039;-60
2021/01/13 05:58:23;;;;;;;1.42;1.02;;;;;;;8.79;93.01;101049.75;4981390;28;20109;-60
2021/01/13 06:00:53;;;;;;;0.98;0.88;;;;;;;8.80;92.88;101048.59;4983671;28;20088;-62
2021/01/13 06:03:23;;;;;;;1.27;0.90;;;;;;;8.80;92.74;101049.41;4988975;28;20053;-59
2021/01/13 06:05:53;;;;;;;3.60;3.25;;;;;;;8.80;92.95;101046.66;4991107;28;20042;-59
2021/01/13 06:08:24;;;;;;;1.52;1.10;;;;;;;8.81;92.91;101052.97;4994129;28;20377;-60
2021/01/13 06:10:55;;;;;;;1.33;1.13;;;;;;;8.80;93.10;101052.16;4989142;28;20065;-63
2021/01/13 06:13:27;;;;;;;1.77;1.10;;;;;;;8.82;92.97;101055.41;4984432;28;20372;-60
2021/01/13 06:16:03;;;;;;;1.23;0.93;;;;;;;8.84;93.04;101061.41;4990844;28;20130;-61
2021/01/13 06:18:32;;;;;;;1.45;1.25;;;;;;;8.84;92.89;101055.88;4977547;28;20077;-61
2021/01/13 06:21:08;;;;;;;1.52;1.20;;;;;;;8.86;92.96;101063.84;4993820;28;20046;-60
2021/01/13 06:23:43;;;;;;;0.90;0.90;;;;;;;8.83;93.03;101057.03;4995522;28;20042;-60
2021/01/13 06:26:40;;;;;;;2.30;1.30;;;;;;;8.85;92.93;101060.28;4994413;28;20463;-60
2021/01/13 06:29:10;;;;;;;1.88;1.50;;;;;;;8.84;92.91;101053.13;4994525;28;20038;-61
2021/01/13 06:31:43;;;;;;;2.30;1.65;;;;;;;8.85;92.92;101059.47;4994604;28;20046;-62
2021/01/13 06:34:35;;;;;;;1.50;1.08;;;;;;;8.85;93.05;101056.69;4996938;28;20403;-60
2021/01/13 06:37:11;;;;;;;1.92;1.33;;;;;;;8.85;93.26;101060.28;4993450;28;20054;-60
2021/01/13 06:39:40;;;;;;;2.75;1.83;;;;;;;8.85;92.93;101063.03;4994702;28;20108;-61
2021/01/13 06:42:06;;;;;;;3.35;1.45;;;;;;;8.86;92.95;101070.19;4977100;28;20133;-60
2021/01/13 06:44:44;;;;;;;21.27;16.92;;;;;;;8.86;93.22;101059.16;4993481;28;20542;-62
2021/01/13 06:47:11;;;;;;;4.10;1.85;;;;;;;8.88;93.00;101065.16;4994342;28;20050;-63
2021/01/13 06:49:38;;;;;;;2.10;1.70;;;;;;;8.88;93.00;101070.69;4994134;28;20051;-61
2021/01/13 06:52:07;;;;;;;1.52;1.38;;;;;;;8.88;93.16;101061.56;4993128;28;20583;-60
2021/01/13 06:54:44;;;;;;;1.92;1.38;;;;;;;8.89;93.37;101075.06;4994350;28;20117;-60
2021/01/13 06:57:12;;;;;;;2.95;1.67;;;;;;;8.90;93.29;101062.06;4994130;28;20073;-59
2021/01/13 06:59:38;;;;;;;1.20;1.00;;;;;;;8.91;93.39;101067.25;4994112;28;20141;-60
2021/01/13 07:02:05;;;;;;;1.40;1.20;;;;;;;8.92;93.27;101065.31;5012808;28;20082;-59
2021/01/13 07:04:44;;;;;;;2.30;1.30;;;;;;;8.91;93.37;101064.50;4994658;28;20125;-59
2021/01/13 07:07:14;;;;;;;2.42;1.42;;;;;;;8.94;93.22;101066.63;4993560;28;20538;-58
2021/01/13 07:09:43;;;;;;;3.63;1.27;;;;;;;8.93;93.26;101067.75;4994942;28;20038;-61
2021/01/13 07:12:12;;;;;;;2.25;1.83;;;;;;;8.94;93.15;101074.09;4994551;28;20404;-60
2021/01/13 07:14:42;;;;;;;3.85;1.33;;;;;;;8.94;93.61;101080.44;4989725;28;20046;-61
2021/01/13 07:17:15;;;;;;;1.75;1.50;;;;;;;8.95;93.40;101082.03;4994479;28;20077;-59
2021/01/13 07:19:50;;;;;;;2.70;1.63;;;;;;;8.97;93.60;101082.53;4975303;28;20041;-59
2021/01/13 07:22:18;;;;;;;3.83;2.00;;;;;;;8.98;93.42;101100.72;4975930;28;20488;-61
2021/01/13 07:24:46;;;;;;;3.30;2.28;;;;;;;8.99;93.62;101085.78;4993173;28;20491;-59
2021/01/13 07:27:14;;;;;;;3.83;2.10;;;;;;;9.00;93.42;101092.91;4993637;28;20038;-59
2021/01/13 07:29:41;;;;;;;3.35;2.00;;;;;;;9.00;93.67;101087.38;4993188;28;20034;-61
2021/01/13 07:32:09;;;;;;;4.65;1.90;;;;;;;9.00;93.32;101084.63;4994035;28;20595;-61
2021/01/13 07:34:38;;;;;;;3.13;1.98;;;;;;;9.00;93.50;101098.44;4993309;28;20137;-61
2021/01/13 07:37:08;;;;;;;5.53;2.78;;;;;;;9.00;93.48;101092.91;4976427;28;20050;-60
2021/01/13 07:39:59;;;;;;;4.95;3.20;;;;;;;9.00;93.75;101092.91;4992075;28;20408;-62
2021/01/13 07:42:36;;;;;;;6.35;2.90;;;;;;;9.01;93.59;101089.03;4974000;28;20043;-61
2021/01/13 07:45:16;;;;;;;3.80;2.53;;;;;;;9.01;93.33;101083.50;4990507;28;20046;-59
2021/01/13 07:47:45;;;;;;;5.75;2.30;;;;;;;9.03;93.44;101091.44;4987276;28;20057;-60
2021/01/13 07:50:13;;;;;;;4.18;2.83;;;;;;;9.04;93.35;101082.84;4992518;28;20095;-60
2021/01/13 07:52:47;;;;;;;5.35;2.67;;;;;;;9.03;93.60;101081.22;4973927;28;20069;-63
2021/01/13 07:55:16;;;;;;;4.32;2.50;;;;;;;9.04;93.41;101079.25;4973751;28;20070;-61
2021/01/13 07:57:56;;;;;;;4.78;2.85;;;;;;;9.04;93.41;101091.13;4990090;28;20039;-59
2021/01/13 08:00:33;;;;;;;7.63;3.00;;;;;;;9.05;93.56;101084.44;4978510;28;20116;-57
2021/01/13 08:03:18;;;;;;;5.90;3.42;;;;;;;9.06;93.45;101093.56;4992710;28;20042;-59
2021/01/13 08:06:02;;;;;;;4.70;2.38;;;;;;;9.06;93.43;101086.09;4985704;28;20042;-60
2021/01/13 08:08:51;;;;;;;3.97;2.78;;;;;;;9.07;93.59;101093.25;4974733;28;20103;-59
2021/01/13 08:11:53;;;;;;;6.95;2.60;;;;;;;9.06;93.72;101072.28;4991220;28;20077;-60
2021/01/13 08:14:32;;;;;;;4.07;2.58;;;;;;;9.09;93.49;101074.38;4988293;28;20065;-60
2021/01/13 08:17:40;;;;;;;8.75;3.00;;;;;;;9.07;93.72;101082.19;4974946;28;20175;-59
2021/01/13 08:20:26;;;;;;;6.20;2.45;;;;;;;9.07;93.43;101081.38;4991081;28;20526;-59
2021/01/13 08:23:10;;;;;;;4.95;2.50;;;;;;;9.07;93.81;101081.38;4990972;28;20046;-61
2021/01/13 08:25:39;;;;;;;3.67;2.00;;;;;;;9.09;93.57;101079.91;4980424;28;20061;-61
2021/01/13 08:28:10;;;;;;;5.18;2.50;;;;;;;9.09;93.67;101074.38;4994069;28;20108;-61
2021/01/13 08:30:40;;;;;;;3.72;2.13;;;;;;;9.09;93.77;101077.16;4988979;28;20086;-58
2021/01/13 08:33:18;;;;;;;5.22;2.15;;;;;;;9.12;93.79;101078.44;4990466;28;20117;-64
2021/01/13 08:35:56;;;;;;;4.13;2.42;;;;;;;9.13;93.78;101080.88;4988480;28;20078;-58
2021/01/13 08:38:24;;;;;;;4.03;2.38;;;;;;;9.11;93.67;101077.63;4956207;28;20065;-59
2021/01/13 08:40:52;;;;;;;3.55;1.92;;;;;;;9.13;93.73;101080.09;4989060;28;20046;-63
2021/01/13 08:43:19;;;;;;;4.38;1.70;;;;;;;9.15;93.63;101091.59;4989649;28;20042;-61
2021/01/13 08:45:50;;;;;;;3.25;2.35;;;;;;;9.13;93.79;101086.38;4989721;28;20049;-61
2021/01/13 08:48:19;;;;;;;2.92;1.60;;;;;;;9.14;93.59;101081.69;4988431;28;20049;-58
2021/01/13 08:51:04;;;;;;;3.75;2.15;;;;;;;9.14;93.69;101088.03;4988979;28;20038;-56
2021/01/13 08:53:32;;;;;;;3.33;1.70;;;;;;;9.16;93.43;101085.75;4973023;28;20048;-58
2021/01/13 08:55:59;;;;;;;2.47;2.10;;;;;;;9.16;93.31;101088.50;4988895;28;20045;-60
2021/01/13 08:58:29;;;;;;;3.05;1.90;;;;;;;9.16;93.28;101085.75;4989000;28;20109;-59
2021/01/13 09:01:05;;;;;;;4.32;1.92;;;;;;;9.16;93.30;101090.44;4967079;28;20046;-58
2021/01/13 09:03:36;;;;;;;7.18;2.53;;;;;;;9.16;93.37;101091.25;4987829;28;20038;-59
2021/01/13 09:06:18;;;;;;;4.10;2.33;;;;;;;9.18;93.18;101097.28;4987793;28;20129;-59
2021/01/13 09:08:48;;;;;;;6.10;2.15;;;;;;;9.17;93.41;101109.47;4971306;28;20460;-58
2021/01/13 09:11:33;;;;;;;3.70;1.60;;;;;;;9.15;93.55;101077.78;4997482;28;20817;-57
2021/01/13 09:14:16;;;;;;;2.40;1.55;;;;;;;9.15;93.49;101084.13;4988857;28;20034;-58
2021/01/13 09:16:46;;;;;;;3.63;1.52;;;;;;;9.14;93.35;101085.25;4989962;28;20481;-59
2021/01/13 09:19:14;;;;;;;2.78;1.65;;;;;;;9.14;93.35;101090.78;4988753;28;20154;-59
2021/01/13 09:21:41;;;;;;;2.05;1.50;;;;;;;9.14;93.38;101071.44;4989025;28;20068;-59
2021/01/13 09:24:16;;;;;;;2.63;1.60;;;;;;;9.14;93.50;101076.97;4969321;28;20105;-63
2021/01/13 09:26:56;;;;;;;5.30;1.95;;;;;;;9.14;93.51;101070.63;4982403;28;20049;-58
2021/01/13 09:29:23;;;;;;;3.58;2.00;;;;;;;9.13;93.54;101075.34;4988597;28;20058;-57
2021/01/13 09:32:09;;;;;;;2.53;1.60;;;;;;;9.13;93.69;101072.59;4986949;28;20070;-57
2021/01/13 09:34:35;;;;;;;3.50;2.33;;;;;;;9.14;93.58;101071.44;4987799;28;20038;-59
2021/01/13 09:37:02;;;;;;;3.08;1.85;;;;;;;9.16;93.68;101085.75;4971386;28;20125;-59
2021/01/13 09:39:53;;;;;;;2.95;2.20;;;;;;;9.17;93.70;101087.38;4988924;28;20034;-58
2021/01/13 09:42:23;;;;;;;4.03;1.70;;;;;;;9.18;93.71;101093.72;4990160;28;20504;-59
2021/01/13 09:45:00;;;;;;;5.18;1.95;;;;;;;9.17;93.79;101101.19;4992827;28;20130;-57
2021/01/13 09:47:27;;;;;;;2.70;1.70;;;;;;;9.20;93.72;101102.47;4992337;28;20144;-61
2021/01/13 09:49:57;;;;;;;2.30;1.50;;;;;;;9.21;93.67;101112.41;4992993;28;20061;-59
2021/01/13 09:52:25;;;;;;;2.15;0.90;;;;;;;9.23;93.56;101107.34;4990404;28;20053;-55
2021/01/13 09:54:53;;;;;;;2.20;0.93;;;;;;;9.24;93.68;101108.19;4992840;28;20046;-57
2021/01/13 09:57:19;;;;;;;1.27;1.17;;;;;;;9.25;93.35;101107.03;5009142;28;20056;-56
2021/01/13 10:00:13;;;;;;;1.10;1.05;;;;;;;9.28;93.62;101098.06;5008957;28;20078;-59
2021/01/13 10:02:41;;;;;;;1.60;1.00;;;;;;;9.30;93.47;101115.13;4972643;28;20062;-60
2021/01/13 10:05:09;;;;;;;4.82;1.35;;;;;;;9.32;93.44;101110.13;4992171;28;20776;-58
2021/01/13 10:07:37;;;;;;;5.05;3.15;;;;;;;9.33;93.32;101122.78;4992158;28;20057;-59
2021/01/13 10:10:06;;;;;;;3.50;1.67;;;;;;;9.34;93.37;101125.22;4997004;28;20050;-63
2021/01/13 10:12:38;;;;;;;6.22;2.28;;;;;;;9.36;93.29;101127.66;4975137;28;20050;-58
2021/01/13 10:15:07;;;;;;;3.03;1.60;;;;;;;9.38;93.26;101126.19;4991467;28;20046;-60
2021/01/13 10:17:34;;;;;;;5.07;1.67;;;;;;;9.41;93.25;101128.28;4991146;28;20047;-58
2021/01/13 10:20:21;;;;;;;3.25;1.30;;;;;;;9.39;93.34;101130.56;4974290;28;20054;-59
2021/01/13 10:22:49;;;;;;;2.55;1.45;;;;;;;9.39;92.98;101136.09;4972808;28;20484;-55
2021/01/13 10:25:29;;;;;;;1.80;1.10;;;;;;;9.41;93.10;101138.53;4991933;28;20046;-56
2021/01/13 10:27:58;;;;;;;3.15;1.50;;;;;;;9.43;93.19;101139.00;4992055;28;20066;-57
2021/01/13 10:30:25;;;;;;;3.63;1.20;;;;;;;9.43;93.19;101139.00;4987034;28;20113;-60
2021/01/13 10:32:54;;;;;;;1.45;0.77;;;;;;;9.43;93.12;101136.25;4983062;28;20057;-58
2021/01/13 10:35:24;;;;;;;3.40;1.75;;;;;;;9.43;93.15;101148.13;5005494;28;20070;-58
2021/01/13 10:37:55;;;;;;;3.63;1.35;;;;;;;9.46;92.94;101144.69;4991645;28;20062;-58
2021/01/13 10:40:24;;;;;;;1.10;0.98;;;;;;;9.49;92.95;101137.69;4974707;28;20054;-60
2021/01/13 10:42:53;;;;;;;2.65;1.00;;;;;;;9.51;93.10;101143.69;4973967;28;20054;-61
2021/01/13 10:45:21;;;;;;;2.63;1.08;;;;;;;9.54;92.93;101141.09;4983973;28;20030;-60
2021/01/13 10:47:55;;;;;;;1.52;0.82;;;;;;;9.58;92.81;101158.63;4958939;28;20050;-63
2021/01/13 10:50:28;;;;;;;1.70;0.90;;;;;;;9.64;92.54;101149.03;4991507;28;20042;-60
2021/01/13 10:52:57;;;;;;;1.63;0.68;;;;;;;9.67;92.69;101155.88;4955469;28;20054;-59
2021/01/13 10:55:26;;;;;;;2.13;0.90;;;;;;;9.70;92.50;101160.75;4973174;28;20042;-59
2021/01/13 10:57:54;;;;;;;1.55;0.88;;;;;;;9.72;92.28;101161.22;4958920;28;20078;-59
2021/01/13 11:00:27;;;;;;;1.80;1.00;;;;;;;9.74;92.16;101162.50;4954798;28;20420;-60
2021/01/13 11:02:59;;;;;;;0.82;0.70;;;;;;;9.77;92.10;101167.38;4971161;28;20055;-59
2021/01/13 11:05:27;;;;;;;1.17;0.50;;;;;;;9.76;92.11;101165.78;4953482;28;20043;-62
2021/01/13 11:07:56;;;;;;;2.00;0.95;;;;;;;9.77;91.93;101172.09;4972126;28;20146;-58
2021/01/13 11:10:24;;;;;;;3.95;1.23;;;;;;;9.80;91.81;101171.44;4974800;28;20043;-62
2021/01/13 11:13:02;;;;;;;1.25;1.00;;;;;;;9.81;91.91;101170.31;4959317;28;20102;-59
2021/01/13 11:15:29;;;;;;;4.70;1.48;;;;;;;9.83;91.82;101170.78;4955166;28;20085;-59
2021/01/13 11:17:58;;;;;;;1.98;1.27;;;;;;;9.85;91.74;101167.72;4953831;28;20059;-59
2021/01/13 11:20:30;;;;;;;2.33;1.50;;;;;;;9.86;91.65;101167.38;4982477;28;20515;-62
2021/01/13 11:23:02;;;;;;;4.50;1.52;;;;;;;9.88;91.71;101162.31;5001353;28;20057;-60
2021/01/13 11:25:34;;;;;;;3.63;1.45;;;;;;;9.90;91.55;101160.00;4991836;28;20042;-59
2021/01/13 11:28:04;;;;;;;2.65;1.90;;;;;;;9.91;91.38;101163.59;4990684;28;20046;-60
2021/01/13 11:30:31;;;;;;;4.40;1.73;;;;;;;9.93;91.54;101172.41;4990155;28;20110;-60
2021/01/13 11:33:03;;;;;;;6.55;2.42;;;;;;;9.96;91.29;101150.41;4989737;28;20068;-58
2021/01/13 11:35:35;;;;;;;5.85;2.83;;;;;;;9.95;91.47;101146.03;4990788;28;20077;-63
2021/01/13 11:38:10;;;;;;;;;;;;;;;9.96;91.27;101144.88;4990547;28;20510;-60
2021/01/13 11:40:53;;;;;;;6.60;3.47;;;;;;;10.01;91.34;101130.03;4989893;28;19980;-58
2021/01/13 11:43:51;;;;;;;7.72;3.60;;;;;;;10.06;91.27;101136.19;4989556;28;20101;-62
2021/01/13 11:46:28;;;;;;;8.60;4.50;;;;;;;10.11;91.27;101132.47;4990384;28;20141;-58
2021/01/13 11:49:15;;;;;;;6.20;3.85;;;;;;;10.14;91.07;101135.38;4990636;28;20046;-59
2021/01/13 11:51:50;;;;;;;7.80;4.53;;;;;;;10.18;90.90;101125.28;4990242;28;20046;-59
2021/01/13 11:54:27;;;;;;;6.10;4.20;;;;;;;10.20;91.03;101136.81;4971735;28;20515;-58
2021/01/13 11:57:14;;;;;;;5.72;3.63;;;;;;;10.25;90.68;101133.88;4955508;28;20051;-59